createdAt,value
2023-05-03T00:01:35.667Z,2.70
2023-05-03T00:06:37.504Z,2.70
2023-05-03T00:11:39.456Z,2.80
2023-05-03T00:16:41.497Z,2.80
2023-05-03T00:21:43.304Z,2.90
2023-05-03T00:26:45.054Z,2.80
2023-05-03T00:31:46.884Z,2.80
2023-05-03T00:36:48.683Z,2.70
2023-05-03T00:41:50.567Z,2.70
2023-05-03T00:46:52.893Z,2.60
2023-05-03T00:51:55.085Z,2.50
2023-05-03T00:56:57.464Z,2.50
2023-05-03T01:01:59.337Z,2.40
2023-05-03T01:07:29.282Z,2.40
2023-05-03T01:12:48.026Z,2.30
2023-05-03T01:17:58.658Z,2.50
2023-05-03T01:23:05.294Z,2.50
2023-05-03T01:28:07.253Z,2.50
2023-05-03T01:33:16.537Z,2.50
2023-05-03T01:38:19.025Z,2.50
2023-05-03T01:43:21.440Z,2.50
2023-05-03T01:48:23.205Z,2.60
2023-05-03T01:53:24.948Z,2.50
2023-05-03T01:58:26.687Z,2.50
2023-05-03T02:03:29.445Z,2.40
2023-05-03T02:08:31.144Z,2.40
2023-05-03T02:13:33.196Z,2.40
2023-05-03T02:18:35.634Z,2.40
2023-05-03T02:23:37.391Z,2.20
2023-05-03T02:28:39.138Z,2.30
2023-05-03T02:33:41.320Z,2.30
2023-05-03T02:38:43.060Z,2.10
2023-05-03T02:43:44.761Z,1.90
2023-05-03T02:48:46.449Z,1.70
2023-05-03T02:53:48.225Z,1.90
2023-05-03T02:58:49.952Z,1.70
2023-05-03T03:03:52.133Z,1.80
2023-05-03T03:08:54.069Z,1.90
2023-05-03T03:13:55.878Z,2.10
2023-05-03T03:18:57.636Z,2.30
2023-05-03T03:23:59.349Z,2.50
2023-05-03T03:29:01.335Z,2.80
2023-05-03T03:34:03.075Z,4.20
2023-05-03T03:39:05.559Z,5.20
2023-05-03T03:44:07.340Z,5.70
2023-05-03T03:49:09.102Z,5.80
2023-05-03T03:54:10.855Z,6.40
2023-05-03T03:59:12.729Z,5.50
2023-05-03T04:04:14.525Z,4.80
2023-05-03T04:09:17.683Z,4.20
2023-05-03T04:14:19.676Z,4.00
2023-05-03T04:19:22.114Z,4.00
2023-05-03T04:24:24.019Z,3.90
2023-05-03T04:29:25.799Z,3.90
2023-05-03T04:34:27.492Z,4.00
2023-05-03T04:39:29.285Z,4.00
2023-05-03T04:44:30.991Z,4.20
2023-05-03T04:49:34.455Z,4.50
2023-05-03T04:54:36.562Z,4.70
2023-05-03T04:59:38.266Z,4.90
2023-05-03T05:04:40.049Z,5.40
2023-05-03T05:09:41.809Z,5.70
2023-05-03T05:14:43.641Z,6.00
2023-05-03T05:19:45.689Z,6.30
2023-05-03T05:24:47.712Z,6.70
2023-05-03T05:29:49.414Z,6.80
2023-05-03T05:34:55.610Z,7.00
2023-05-03T05:39:57.441Z,8.90
2023-05-03T05:44:59.296Z,9.00
2023-05-03T05:50:01.223Z,10.70
2023-05-03T05:55:03.162Z,12.40
2023-05-03T06:00:14.708Z,12.10
2023-05-03T06:05:16.669Z,13.30
2023-05-03T06:10:18.497Z,12.60
2023-05-03T06:15:20.396Z,11.90
2023-05-03T06:20:24.225Z,11.10
2023-05-03T06:25:26.148Z,10.10
2023-05-03T06:30:28.646Z,10.00
2023-05-03T06:35:32.480Z,11.00
2023-05-03T06:40:36.537Z,15.80
2023-05-03T06:45:43.860Z,21.60
2023-05-03T06:50:45.750Z,16.60
2023-05-03T06:55:47.509Z,16.50
2023-05-03T07:00:53.961Z,15.80
2023-05-03T07:05:55.714Z,19.20
2023-05-03T07:10:58.036Z,19.90
2023-05-03T07:16:03.362Z,16.70
2023-05-03T07:21:08.061Z,13.90
2023-05-03T07:26:11.242Z,12.80
2023-05-03T07:31:13.050Z,13.00
2023-05-03T07:36:14.906Z,12.90
2023-05-03T07:41:16.864Z,12.80
2023-05-03T07:46:18.825Z,15.00
2023-05-03T07:51:21.100Z,21.00
2023-05-03T07:56:23.814Z,22.60
2023-05-03T08:01:26.342Z,23.20
2023-05-03T08:06:28.359Z,23.10
2023-05-03T08:11:30.397Z,19.30
2023-05-03T08:16:32.662Z,15.30
2023-05-03T08:21:35.581Z,14.40
2023-05-03T08:26:37.786Z,13.50
2023-05-03T08:31:39.869Z,13.00
2023-05-03T08:36:41.715Z,17.60
2023-05-03T08:41:43.565Z,21.10
2023-05-03T08:46:45.377Z,22.10
2023-05-03T08:51:48.456Z,21.10
2023-05-03T08:56:51.005Z,17.50
2023-05-03T09:01:54.937Z,15.40
2023-05-03T09:07:08.501Z,14.10
2023-05-03T09:12:10.248Z,14.20
2023-05-03T09:17:17.240Z,16.50
2023-05-03T09:22:19.629Z,18.30
2023-05-03T09:27:22.004Z,15.00
2023-05-03T09:32:25.125Z,13.60
2023-05-03T09:37:38.609Z,13.10
2023-05-03T09:42:46.208Z,13.00
2023-05-03T09:47:52.574Z,16.10
2023-05-03T09:52:57.530Z,15.60
2023-05-03T09:57:59.996Z,17.40
2023-05-03T10:03:06.606Z,21.50
2023-05-03T10:08:11.463Z,22.50
2023-05-03T10:13:14.406Z,17.50
2023-05-03T10:18:21.058Z,15.00
2023-05-03T10:23:23.232Z,14.30
2023-05-03T10:28:24.938Z,13.90
2023-05-03T10:33:32.132Z,13.50
2023-05-03T10:38:33.907Z,13.70
2023-05-03T10:43:35.892Z,13.20
2023-05-03T10:48:37.837Z,12.30
2023-05-03T10:53:41.318Z,11.50
2023-05-03T10:58:45.334Z,11.10
2023-05-03T11:03:53.555Z,11.30
2023-05-03T11:08:55.374Z,11.90
2023-05-03T11:13:57.900Z,12.00
2023-05-03T11:19:03.049Z,12.50
2023-05-03T11:24:05.364Z,13.60
2023-05-03T11:29:10.530Z,13.70
2023-05-03T11:34:13.380Z,14.10
2023-05-03T11:39:15.433Z,14.20
2023-05-03T11:44:18.498Z,14.10
2023-05-03T11:49:20.896Z,14.10
2023-05-03T11:54:26.929Z,13.60
2023-05-03T11:59:38.622Z,13.40
2023-05-03T12:04:43.253Z,13.40
2023-05-03T12:09:52.466Z,13.30
2023-05-03T12:14:59.870Z,13.10
2023-05-03T12:25:32.605Z,14.20
2023-05-03T12:30:35.690Z,13.90
2023-05-03T12:35:40.224Z,13.40
2023-05-03T12:40:42.843Z,12.50
2023-05-03T12:45:52.210Z,12.20
2023-05-03T12:51:17.654Z,12.20
2023-05-03T12:56:25.022Z,11.90
2023-05-03T13:06:41.193Z,11.50
2023-05-03T13:11:45.685Z,11.50
2023-05-03T13:16:52.158Z,11.80
2023-05-03T13:21:54.567Z,12.20
2023-05-03T13:26:56.305Z,12.20
2023-05-03T13:31:58.134Z,12.40
2023-05-03T13:37:00.310Z,12.70
2023-05-03T13:42:03.443Z,11.80
2023-05-03T13:47:05.333Z,11.80
2023-05-03T13:52:07.047Z,12.10
2023-05-03T13:57:09.018Z,12.00
2023-05-03T14:02:10.808Z,11.80
2023-05-03T14:07:12.558Z,12.40
2023-05-03T14:12:14.464Z,12.70
2023-05-03T14:17:17.145Z,12.10
2023-05-03T14:22:19.070Z,11.10
2023-05-03T14:27:21.980Z,11.50
2023-05-03T14:32:24.470Z,11.80
2023-05-03T14:37:26.444Z,11.70
2023-05-03T14:42:32.097Z,11.70
2023-05-03T14:47:34.448Z,11.70
2023-05-03T14:52:37.945Z,11.90
2023-05-03T14:57:39.747Z,12.00
2023-05-03T15:02:42.202Z,11.90
2023-05-03T15:07:44.033Z,12.00
2023-05-03T15:12:45.871Z,12.30
2023-05-03T15:17:47.952Z,12.20
2023-05-03T15:22:49.888Z,12.10
2023-05-03T15:27:52.567Z,11.80
2023-05-03T15:32:54.469Z,11.50
2023-05-03T15:37:56.443Z,11.70
2023-05-03T15:42:58.179Z,11.70
2023-05-03T15:48:00.186Z,11.90
2023-05-03T15:53:02.135Z,11.80
2023-05-03T15:58:03.995Z,11.90
2023-05-03T16:03:05.924Z,12.10
2023-05-03T16:08:08.336Z,11.90
2023-05-03T16:13:11.623Z,11.70
2023-05-03T16:18:13.506Z,11.60
2023-05-03T16:23:16.018Z,11.70
2023-05-03T16:28:17.907Z,11.60
2023-05-03T16:33:20.372Z,11.30
2023-05-03T16:38:22.184Z,11.30
2023-05-03T16:43:24.147Z,11.30
2023-05-03T16:48:35.083Z,11.10
2023-05-03T16:53:36.853Z,11.00
2023-05-03T16:58:38.616Z,10.80
2023-05-03T17:03:41.520Z,10.50
2023-05-03T17:08:43.342Z,10.40
2023-05-03T17:13:45.158Z,10.20
2023-05-03T17:18:47.793Z,10.00
2023-05-03T17:23:49.997Z,10.00
2023-05-03T17:28:52.275Z,9.90
2023-05-03T17:33:54.190Z,9.90
2023-05-03T17:38:56.180Z,9.50
2023-05-03T17:43:57.952Z,9.20
2023-05-03T17:48:59.853Z,8.80
2023-05-03T17:54:01.618Z,8.50
2023-05-03T17:59:03.828Z,8.20
2023-05-03T18:04:05.722Z,8.10
2023-05-03T18:09:08.086Z,7.90
2023-05-03T18:14:09.774Z,7.80
2023-05-03T18:19:12.595Z,7.70
2023-05-03T18:24:15.807Z,7.40
2023-05-03T18:29:17.616Z,7.20
2023-05-03T18:34:19.546Z,7.20
2023-05-03T18:39:22.795Z,7.00
2023-05-03T18:44:25.841Z,6.90
2023-05-03T18:49:27.920Z,6.60
2023-05-03T18:54:29.911Z,6.50
2023-05-03T18:59:31.686Z,6.60
2023-05-03T19:04:33.801Z,6.60
2023-05-03T19:09:36.727Z,6.80
2023-05-03T19:14:41.022Z,6.70
2023-05-03T19:19:42.819Z,6.30
2023-05-03T19:24:44.822Z,6.10
2023-05-03T19:29:46.673Z,5.90
2023-05-03T19:34:48.522Z,5.80
2023-05-03T19:39:50.749Z,5.70
2023-05-03T19:44:52.717Z,5.80
2023-05-03T19:49:54.731Z,5.60
2023-05-03T19:54:57.301Z,5.40
2023-05-03T19:59:59.031Z,5.50
2023-05-03T20:05:00.830Z,5.50
2023-05-03T20:10:02.947Z,5.50
2023-05-03T20:15:05.458Z,5.50
2023-05-03T20:20:11.246Z,5.50
2023-05-03T20:25:13.225Z,5.70
2023-05-03T20:30:15.108Z,5.90
2023-05-03T20:35:18.027Z,5.90
2023-05-03T20:40:19.854Z,5.80
2023-05-03T20:45:22.238Z,5.60
2023-05-03T20:50:23.991Z,5.30
2023-05-03T20:55:25.942Z,5.00
2023-05-03T21:00:27.765Z,4.90
2023-05-03T21:05:29.477Z,4.70
2023-05-03T21:10:31.352Z,4.50
2023-05-03T21:15:33.071Z,4.60
2023-05-03T21:20:36.773Z,4.50
2023-05-03T21:25:38.605Z,4.10
2023-05-03T21:30:42.229Z,4.00
2023-05-03T21:35:43.980Z,4.00
2023-05-03T21:40:47.130Z,4.10
2023-05-03T21:45:48.963Z,4.00
2023-05-03T21:50:54.142Z,4.00
2023-05-03T21:55:56.133Z,3.90
2023-05-03T22:00:57.832Z,3.90
2023-05-03T22:05:59.609Z,3.80
2023-05-03T22:11:05.111Z,3.80
2023-05-03T22:16:08.026Z,3.60
2023-05-03T22:21:09.800Z,3.50
2023-05-03T22:26:11.734Z,3.40
2023-05-03T22:31:13.682Z,3.40
2023-05-03T22:36:15.543Z,3.40
2023-05-03T22:41:17.256Z,3.40
2023-05-03T22:46:19.217Z,3.30
2023-05-03T22:51:21.409Z,3.30
2023-05-03T22:56:23.189Z,3.20
2023-05-03T23:01:26.956Z,3.20
2023-05-03T23:06:28.883Z,3.20
2023-05-03T23:11:30.724Z,3.30
2023-05-03T23:16:32.732Z,3.30
2023-05-03T23:21:34.515Z,3.30
2023-05-03T23:26:36.352Z,3.30
2023-05-03T23:31:38.720Z,3.30
2023-05-03T23:36:41.038Z,3.20
2023-05-03T23:41:42.895Z,3.30
2023-05-03T23:46:44.638Z,3.10
2023-05-03T23:51:46.664Z,3.10
2023-05-03T23:56:48.398Z,3.00
